sensor_id;sensor_type;location;lat;lon;timestamp;P1;durP1;ratioP1;P2;durP2;ratioP2
35126;SDS011;21300;52.006;5.798;2022-08-19T00:01:33;6.35;;;4.68;;
35126;SDS011;21300;52.006;5.798;2022-08-19T00:04:02;8.18;;;4.72;;
35126;SDS011;21300;52.006;5.798;2022-08-19T00:06:30;5.88;;;4.53;;
35126;SDS011;21300;52.006;5.798;2022-08-19T00:09:00;6.10;;;4.43;;
35126;SDS011;21300;52.006;5.798;2022-08-19T00:11:26;4.90;;;4.38;;
35126;SDS011;21300;52.006;5.798;2022-08-19T00:13:52;5.13;;;4.60;;
35126;SDS011;21300;52.006;5.798;2022-08-19T00:16:19;4.78;;;4.10;;
35126;SDS011;21300;52.006;5.798;2022-08-19T00:18:47;4.05;;;3.75;;
35126;SDS011;21300;52.006;5.798;2022-08-19T00:21:13;4.35;;;3.70;;
35126;SDS011;21300;52.006;5.798;2022-08-19T00:23:40;4.97;;;3.60;;
35126;SDS011;21300;52.006;5.798;2022-08-19T00:26:07;5.28;;;3.55;;
35126;SDS011;21300;52.006;5.798;2022-08-19T00:28:36;4.72;;;3.92;;
35126;SDS011;21300;52.006;5.798;2022-08-19T00:31:03;3.97;;;3.53;;
35126;SDS011;21300;52.006;5.798;2022-08-19T00:33:30;4.70;;;4.05;;
35126;SDS011;21300;52.006;5.798;2022-08-19T00:35:59;4.22;;;3.60;;
35126;SDS011;21300;52.006;5.798;2022-08-19T00:38:28;3.75;;;3.33;;
35126;SDS011;21300;52.006;5.798;2022-08-19T00:40:57;5.53;;;4.13;;
35126;SDS011;21300;52.006;5.798;2022-08-19T00:43:24;5.65;;;3.78;;
35126;SDS011;21300;52.006;5.798;2022-08-19T00:45:51;4.03;;;3.63;;
35126;SDS011;21300;52.006;5.798;2022-08-19T00:51:03;4.27;;;3.60;;
35126;SDS011;21300;52.006;5.798;2022-08-19T00:53:31;4.80;;;4.00;;
35126;SDS011;21300;52.006;5.798;2022-08-19T00:55:59;4.68;;;3.90;;
35126;SDS011;21300;52.006;5.798;2022-08-19T00:58:29;6.20;;;3.83;;
35126;SDS011;21300;52.006;5.798;2022-08-19T01:03:43;5.00;;;4.50;;
35126;SDS011;21300;52.006;5.798;2022-08-19T01:06:08;4.68;;;3.90;;
35126;SDS011;21300;52.006;5.798;2022-08-19T01:08:55;4.07;;;3.67;;
35126;SDS011;21300;52.006;5.798;2022-08-19T01:11:30;5.72;;;4.00;;
35126;SDS011;21300;52.006;5.798;2022-08-19T01:14:01;7.07;;;4.10;;
35126;SDS011;21300;52.006;5.798;2022-08-19T01:16:30;4.72;;;4.18;;
35126;SDS011;21300;52.006;5.798;2022-08-19T01:18:57;6.32;;;3.88;;
35126;SDS011;21300;52.006;5.798;2022-08-19T01:21:31;4.25;;;3.85;;
35126;SDS011;21300;52.006;5.798;2022-08-19T01:24:25;4.45;;;3.90;;
35126;SDS011;21300;52.006;5.798;2022-08-19T01:26:51;4.25;;;3.85;;
35126;SDS011;21300;52.006;5.798;2022-08-19T01:29:20;6.03;;;3.97;;
35126;SDS011;21300;52.006;5.798;2022-08-19T01:31:45;5.43;;;3.75;;
35126;SDS011;21300;52.006;5.798;2022-08-19T01:34:11;4.10;;;3.55;;
35126;SDS011;21300;52.006;5.798;2022-08-19T01:36:38;4.40;;;4.00;;
35126;SDS011;21300;52.006;5.798;2022-08-19T01:39:18;4.95;;;3.80;;
35126;SDS011;21300;52.006;5.798;2022-08-19T01:44:13;4.88;;;3.75;;
35126;SDS011;21300;52.006;5.798;2022-08-19T01:46:39;4.28;;;3.88;;
35126;SDS011;21300;52.006;5.798;2022-08-19T01:49:07;4.05;;;3.42;;
35126;SDS011;21300;52.006;5.798;2022-08-19T01:51:34;5.40;;;3.50;;
35126;SDS011;21300;52.006;5.798;2022-08-19T01:54:00;4.82;;;3.55;;
35126;SDS011;21300;52.006;5.798;2022-08-19T01:56:35;5.10;;;3.50;;
35126;SDS011;21300;52.006;5.798;2022-08-19T01:59:02;6.35;;;3.75;;
35126;SDS011;21300;52.006;5.798;2022-08-19T02:01:41;5.68;;;3.78;;
35126;SDS011;21300;52.006;5.798;2022-08-19T02:04:07;4.68;;;3.50;;
35126;SDS011;21300;52.006;5.798;2022-08-19T02:06:33;4.05;;;3.65;;
35126;SDS011;21300;52.006;5.798;2022-08-19T02:08:59;4.07;;;3.67;;
35126;SDS011;21300;52.006;5.798;2022-08-19T02:11:27;5.38;;;3.50;;
35126;SDS011;21300;52.006;5.798;2022-08-19T02:13:56;4.30;;;3.38;;
35126;SDS011;21300;52.006;5.798;2022-08-19T02:16:23;5.07;;;3.85;;
35126;SDS011;21300;52.006;5.798;2022-08-19T02:18:49;5.57;;;4.60;;
35126;SDS011;21300;52.006;5.798;2022-08-19T02:21:16;5.75;;;3.97;;
35126;SDS011;21300;52.006;5.798;2022-08-19T02:23:43;5.70;;;4.40;;
35126;SDS011;21300;52.006;5.798;2022-08-19T02:26:10;7.00;;;3.83;;
35126;SDS011;21300;52.006;5.798;2022-08-19T02:28:37;4.10;;;3.70;;
35126;SDS011;21300;52.006;5.798;2022-08-19T02:31:03;5.25;;;3.58;;
35126;SDS011;21300;52.006;5.798;2022-08-19T02:33:34;5.03;;;3.88;;
35126;SDS011;21300;52.006;5.798;2022-08-19T02:36:05;5.68;;;3.55;;
35126;SDS011;21300;52.006;5.798;2022-08-19T02:38:32;5.82;;;3.80;;
35126;SDS011;21300;52.006;5.798;2022-08-19T02:41:04;4.72;;;4.07;;
35126;SDS011;21300;52.006;5.798;2022-08-19T02:43:35;8.30;;;3.67;;
35126;SDS011;21300;52.006;5.798;2022-08-19T02:46:21;3.90;;;3.50;;
35126;SDS011;21300;52.006;5.798;2022-08-19T02:48:50;4.50;;;4.10;;
35126;SDS011;21300;52.006;5.798;2022-08-19T02:51:26;5.28;;;3.80;;
35126;SDS011;21300;52.006;5.798;2022-08-19T02:53:54;5.05;;;3.88;;
35126;SDS011;21300;52.006;5.798;2022-08-19T02:56:21;4.57;;;3.95;;
35126;SDS011;21300;52.006;5.798;2022-08-19T02:58:52;6.28;;;4.45;;
35126;SDS011;21300;52.006;5.798;2022-08-19T03:01:39;5.75;;;4.22;;
35126;SDS011;21300;52.006;5.798;2022-08-19T03:04:07;5.07;;;4.40;;
35126;SDS011;21300;52.006;5.798;2022-08-19T03:06:38;5.85;;;4.38;;
35126;SDS011;21300;52.006;5.798;2022-08-19T03:09:09;7.47;;;4.78;;
35126;SDS011;21300;52.006;5.798;2022-08-19T03:11:35;5.30;;;4.32;;
35126;SDS011;21300;52.006;5.798;2022-08-19T03:14:02;5.72;;;4.70;;
35126;SDS011;21300;52.006;5.798;2022-08-19T03:16:30;5.88;;;4.55;;
35126;SDS011;21300;52.006;5.798;2022-08-19T03:18:57;7.28;;;5.03;;
35126;SDS011;21300;52.006;5.798;2022-08-19T03:21:25;6.32;;;5.18;;
35126;SDS011;21300;52.006;5.798;2022-08-19T03:23:56;7.25;;;5.57;;
35126;SDS011;21300;52.006;5.798;2022-08-19T03:26:23;5.28;;;4.78;;
35126;SDS011;21300;52.006;5.798;2022-08-19T03:28:49;8.15;;;5.10;;
35126;SDS011;21300;52.006;5.798;2022-08-19T03:31:15;9.60;;;4.90;;
35126;SDS011;21300;52.006;5.798;2022-08-19T03:33:43;5.25;;;4.70;;
35126;SDS011;21300;52.006;5.798;2022-08-19T03:36:14;5.65;;;4.97;;
35126;SDS011;21300;52.006;5.798;2022-08-19T03:38:46;5.82;;;4.53;;
35126;SDS011;21300;52.006;5.798;2022-08-19T03:41:16;5.57;;;4.53;;
35126;SDS011;21300;52.006;5.798;2022-08-19T03:46:16;6.65;;;4.90;;
35126;SDS011;21300;52.006;5.798;2022-08-19T03:48:47;5.78;;;5.13;;
35126;SDS011;21300;52.006;5.798;2022-08-19T03:51:20;6.20;;;4.28;;
35126;SDS011;21300;52.006;5.798;2022-08-19T03:53:52;5.78;;;4.43;;
35126;SDS011;21300;52.006;5.798;2022-08-19T03:56:18;6.38;;;4.57;;
35126;SDS011;21300;52.006;5.798;2022-08-19T03:58:45;6.00;;;4.60;;
35126;SDS011;21300;52.006;5.798;2022-08-19T04:01:13;5.07;;;4.40;;
35126;SDS011;21300;52.006;5.798;2022-08-19T04:03:43;4.65;;;4.10;;
35126;SDS011;21300;52.006;5.798;2022-08-19T04:08:46;5.20;;;4.70;;
35126;SDS011;21300;52.006;5.798;2022-08-19T04:11:14;5.38;;;4.65;;
35126;SDS011;21300;52.006;5.798;2022-08-19T04:13:42;5.63;;;4.43;;
35126;SDS011;21300;52.006;5.798;2022-08-19T04:16:10;5.53;;;4.55;;
35126;SDS011;21300;52.006;5.798;2022-08-19T04:18:38;5.13;;;4.55;;
35126;SDS011;21300;52.006;5.798;2022-08-19T04:21:04;6.70;;;4.78;;
35126;SDS011;21300;52.006;5.798;2022-08-19T04:23:31;5.20;;;4.47;;
35126;SDS011;21300;52.006;5.798;2022-08-19T04:25:58;4.88;;;4.40;;
35126;SDS011;21300;52.006;5.798;2022-08-19T04:28:24;5.90;;;4.20;;
35126;SDS011;21300;52.006;5.798;2022-08-19T04:30:51;5.03;;;4.47;;
35126;SDS011;21300;52.006;5.798;2022-08-19T04:33:20;6.55;;;4.55;;
35126;SDS011;21300;52.006;5.798;2022-08-19T04:35:48;5.57;;;4.97;;
35126;SDS011;21300;52.006;5.798;2022-08-19T04:38:16;5.32;;;4.07;;
35126;SDS011;21300;52.006;5.798;2022-08-19T04:40:44;4.53;;;4.10;;
35126;SDS011;21300;52.006;5.798;2022-08-19T04:43:31;4.68;;;4.28;;
35126;SDS011;21300;52.006;5.798;2022-08-19T04:45:58;6.40;;;4.55;;
35126;SDS011;21300;52.006;5.798;2022-08-19T04:48:30;4.93;;;4.43;;
35126;SDS011;21300;52.006;5.798;2022-08-19T04:50:57;4.78;;;4.38;;
35126;SDS011;21300;52.006;5.798;2022-08-19T04:53:24;5.55;;;4.43;;
35126;SDS011;21300;52.006;5.798;2022-08-19T04:55:57;4.50;;;4.00;;
35126;SDS011;21300;52.006;5.798;2022-08-19T04:58:24;5.72;;;4.43;;
35126;SDS011;21300;52.006;5.798;2022-08-19T05:00:52;6.85;;;4.55;;
35126;SDS011;21300;52.006;5.798;2022-08-19T05:03:18;7.25;;;4.70;;
35126;SDS011;21300;52.006;5.798;2022-08-19T05:05:45;5.78;;;4.68;;
35126;SDS011;21300;52.006;5.798;2022-08-19T05:08:15;5.15;;;4.28;;
35126;SDS011;21300;52.006;5.798;2022-08-19T05:10:44;9.07;;;5.60;;
35126;SDS011;21300;52.006;5.798;2022-08-19T05:13:16;10.07;;;7.13;;
35126;SDS011;21300;52.006;5.798;2022-08-19T05:15:44;10.15;;;7.13;;
35126;SDS011;21300;52.006;5.798;2022-08-19T05:18:17;8.43;;;7.32;;
35126;SDS011;21300;52.006;5.798;2022-08-19T05:21:06;9.43;;;7.35;;
35126;SDS011;21300;52.006;5.798;2022-08-19T05:23:51;10.10;;;7.93;;
35126;SDS011;21300;52.006;5.798;2022-08-19T05:26:17;11.20;;;7.95;;
35126;SDS011;21300;52.006;5.798;2022-08-19T05:28:42;10.25;;;7.85;;
35126;SDS011;21300;52.006;5.798;2022-08-19T05:31:08;11.20;;;8.55;;
35126;SDS011;21300;52.006;5.798;2022-08-19T05:33:36;10.00;;;8.40;;
35126;SDS011;21300;52.006;5.798;2022-08-19T05:36:02;13.70;;;8.68;;
35126;SDS011;21300;52.006;5.798;2022-08-19T05:38:28;13.52;;;8.82;;
35126;SDS011;21300;52.006;5.798;2022-08-19T05:41:13;10.52;;;8.45;;
35126;SDS011;21300;52.006;5.798;2022-08-19T05:43:40;10.23;;;8.50;;
35126;SDS011;21300;52.006;5.798;2022-08-19T05:46:06;9.77;;;8.32;;
35126;SDS011;21300;52.006;5.798;2022-08-19T05:48:33;11.10;;;9.23;;
35126;SDS011;21300;52.006;5.798;2022-08-19T05:51:06;10.98;;;8.80;;
35126;SDS011;21300;52.006;5.798;2022-08-19T05:53:33;9.82;;;8.35;;
35126;SDS011;21300;52.006;5.798;2022-08-19T05:56:05;12.32;;;8.23;;
35126;SDS011;21300;52.006;5.798;2022-08-19T05:58:36;9.27;;;8.27;;
35126;SDS011;21300;52.006;5.798;2022-08-19T06:01:03;10.15;;;8.93;;
35126;SDS011;21300;52.006;5.798;2022-08-19T06:03:35;10.05;;;8.88;;
35126;SDS011;21300;52.006;5.798;2022-08-19T06:06:02;12.70;;;10.82;;
35126;SDS011;21300;52.006;5.798;2022-08-19T06:08:28;16.55;;;13.35;;
35126;SDS011;21300;52.006;5.798;2022-08-19T06:10:54;16.15;;;14.43;;
35126;SDS011;21300;52.006;5.798;2022-08-19T06:13:21;18.02;;;12.88;;
35126;SDS011;21300;52.006;5.798;2022-08-19T06:15:47;18.02;;;15.23;;
35126;SDS011;21300;52.006;5.798;2022-08-19T06:18:14;24.23;;;17.02;;
35126;SDS011;21300;52.006;5.798;2022-08-19T06:20:40;23.77;;;18.75;;
35126;SDS011;21300;52.006;5.798;2022-08-19T06:23:06;26.35;;;18.23;;
35126;SDS011;21300;52.006;5.798;2022-08-19T06:25:33;21.13;;;18.27;;
35126;SDS011;21300;52.006;5.798;2022-08-19T06:27:58;23.10;;;19.80;;
35126;SDS011;21300;52.006;5.798;2022-08-19T06:30:24;23.50;;;19.52;;
35126;SDS011;21300;52.006;5.798;2022-08-19T06:32:50;25.33;;;19.35;;
35126;SDS011;21300;52.006;5.798;2022-08-19T06:35:15;30.42;;;20.73;;
35126;SDS011;21300;52.006;5.798;2022-08-19T06:37:41;23.73;;;19.45;;
35126;SDS011;21300;52.006;5.798;2022-08-19T06:40:08;28.80;;;19.55;;
35126;SDS011;21300;52.006;5.798;2022-08-19T06:42:35;28.00;;;18.98;;
35126;SDS011;21300;52.006;5.798;2022-08-19T06:45:03;26.70;;;18.35;;
35126;SDS011;21300;52.006;5.798;2022-08-19T06:47:30;28.25;;;19.45;;
35126;SDS011;21300;52.006;5.798;2022-08-19T06:49:57;43.42;;;25.23;;
35126;SDS011;21300;52.006;5.798;2022-08-19T06:52:27;40.75;;;26.27;;
35126;SDS011;21300;52.006;5.798;2022-08-19T06:54:53;46.20;;;29.30;;
35126;SDS011;21300;52.006;5.798;2022-08-19T06:57:20;41.60;;;26.83;;
35126;SDS011;21300;52.006;5.798;2022-08-19T06:59:46;63.22;;;37.10;;
35126;SDS011;21300;52.006;5.798;2022-08-19T07:02:11;69.82;;;40.63;;
35126;SDS011;21300;52.006;5.798;2022-08-19T07:04:37;71.07;;;43.13;;
35126;SDS011;21300;52.006;5.798;2022-08-19T07:07:10;74.45;;;42.25;;
35126;SDS011;21300;52.006;5.798;2022-08-19T07:12:06;78.55;;;45.72;;
35126;SDS011;21300;52.006;5.798;2022-08-19T07:14:34;84.63;;;46.17;;
35126;SDS011;21300;52.006;5.798;2022-08-19T07:17:02;80.18;;;48.10;;
35126;SDS011;21300;52.006;5.798;2022-08-19T07:19:29;81.22;;;45.75;;
35126;SDS011;21300;52.006;5.798;2022-08-19T07:21:56;91.95;;;50.97;;
35126;SDS011;21300;52.006;5.798;2022-08-19T07:24:25;83.65;;;48.15;;
35126;SDS011;21300;52.006;5.798;2022-08-19T07:26:53;85.00;;;51.60;;
35126;SDS011;21300;52.006;5.798;2022-08-19T07:29:20;87.03;;;49.45;;
35126;SDS011;21300;52.006;5.798;2022-08-19T07:31:50;80.45;;;49.08;;
35126;SDS011;21300;52.006;5.798;2022-08-19T07:34:16;83.10;;;50.60;;
35126;SDS011;21300;52.006;5.798;2022-08-19T07:36:42;81.93;;;50.90;;
35126;SDS011;21300;52.006;5.798;2022-08-19T07:39:10;88.95;;;52.92;;
35126;SDS011;21300;52.006;5.798;2022-08-19T07:41:41;84.10;;;51.75;;
35126;SDS011;21300;52.006;5.798;2022-08-19T07:44:07;90.65;;;55.58;;
35126;SDS011;21300;52.006;5.798;2022-08-19T07:46:35;100.82;;;59.08;;
35126;SDS011;21300;52.006;5.798;2022-08-19T07:49:03;85.95;;;55.40;;
35126;SDS011;21300;52.006;5.798;2022-08-19T07:51:29;86.15;;;56.20;;
35126;SDS011;21300;52.006;5.798;2022-08-19T07:53:55;87.82;;;56.63;;
35126;SDS011;21300;52.006;5.798;2022-08-19T07:56:22;89.32;;;56.97;;
35126;SDS011;21300;52.006;5.798;2022-08-19T07:58:49;87.53;;;55.83;;
35126;SDS011;21300;52.006;5.798;2022-08-19T08:01:17;85.97;;;54.35;;
35126;SDS011;21300;52.006;5.798;2022-08-19T08:03:47;84.35;;;51.20;;
35126;SDS011;21300;52.006;5.798;2022-08-19T08:06:31;83.78;;;54.10;;
35126;SDS011;21300;52.006;5.798;2022-08-19T08:09:17;77.07;;;49.45;;
35126;SDS011;21300;52.006;5.798;2022-08-19T08:11:51;81.05;;;53.65;;
35126;SDS011;21300;52.006;5.798;2022-08-19T08:14:20;78.65;;;51.13;;
35126;SDS011;21300;52.006;5.798;2022-08-19T08:16:49;81.75;;;52.10;;
35126;SDS011;21300;52.006;5.798;2022-08-19T08:19:16;81.65;;;51.58;;
35126;SDS011;21300;52.006;5.798;2022-08-19T08:21:48;87.13;;;53.05;;
35126;SDS011;21300;52.006;5.798;2022-08-19T08:24:14;67.35;;;44.47;;
35126;SDS011;21300;52.006;5.798;2022-08-19T08:26:40;64.88;;;42.35;;
35126;SDS011;21300;52.006;5.798;2022-08-19T08:29:06;57.95;;;38.75;;
35126;SDS011;21300;52.006;5.798;2022-08-19T08:31:34;61.40;;;40.58;;
35126;SDS011;21300;52.006;5.798;2022-08-19T08:34:00;59.45;;;38.03;;
35126;SDS011;21300;52.006;5.798;2022-08-19T08:36:25;57.72;;;40.33;;
35126;SDS011;21300;52.006;5.798;2022-08-19T08:38:52;55.42;;;37.35;;
35126;SDS011;21300;52.006;5.798;2022-08-19T08:41:22;64.82;;;41.00;;
35126;SDS011;21300;52.006;5.798;2022-08-19T08:44:05;62.40;;;43.60;;
35126;SDS011;21300;52.006;5.798;2022-08-19T08:46:37;68.75;;;42.55;;
35126;SDS011;21300;52.006;5.798;2022-08-19T08:49:31;59.70;;;36.70;;
35126;SDS011;21300;52.006;5.798;2022-08-19T08:54:44;70.75;;;43.55;;
35126;SDS011;21300;52.006;5.798;2022-08-19T08:57:15;67.38;;;44.33;;
35126;SDS011;21300;52.006;5.798;2022-08-19T08:59:48;67.35;;;41.22;;
35126;SDS011;21300;52.006;5.798;2022-08-19T09:02:19;60.63;;;40.35;;
35126;SDS011;21300;52.006;5.798;2022-08-19T09:04:45;61.00;;;38.15;;
35126;SDS011;21300;52.006;5.798;2022-08-19T09:09:55;57.78;;;38.10;;
35126;SDS011;21300;52.006;5.798;2022-08-19T09:12:39;55.40;;;35.38;;
35126;SDS011;21300;52.006;5.798;2022-08-19T09:15:32;52.88;;;35.35;;
35126;SDS011;21300;52.006;5.798;2022-08-19T09:18:04;58.17;;;36.17;;
35126;SDS011;21300;52.006;5.798;2022-08-19T09:20:31;56.33;;;37.92;;
35126;SDS011;21300;52.006;5.798;2022-08-19T09:22:57;54.65;;;36.22;;
35126;SDS011;21300;52.006;5.798;2022-08-19T09:25:23;53.92;;;35.42;;
35126;SDS011;21300;52.006;5.798;2022-08-19T09:27:49;52.13;;;35.10;;
35126;SDS011;21300;52.006;5.798;2022-08-19T09:30:26;47.30;;;32.10;;
35126;SDS011;21300;52.006;5.798;2022-08-19T09:32:53;48.83;;;32.78;;
35126;SDS011;21300;52.006;5.798;2022-08-19T09:35:20;46.30;;;30.98;;
35126;SDS011;21300;52.006;5.798;2022-08-19T09:37:48;38.70;;;27.52;;
35126;SDS011;21300;52.006;5.798;2022-08-19T09:40:14;44.05;;;30.75;;
35126;SDS011;21300;52.006;5.798;2022-08-19T09:42:41;46.20;;;31.52;;
35126;SDS011;21300;52.006;5.798;2022-08-19T09:45:13;44.88;;;31.25;;
35126;SDS011;21300;52.006;5.798;2022-08-19T09:47:39;38.47;;;28.17;;
35126;SDS011;21300;52.006;5.798;2022-08-19T09:50:06;41.00;;;29.35;;
35126;SDS011;21300;52.006;5.798;2022-08-19T09:52:33;40.33;;;26.33;;
35126;SDS011;21300;52.006;5.798;2022-08-19T09:55:02;36.05;;;26.23;;
35126;SDS011;21300;52.006;5.798;2022-08-19T09:57:29;40.40;;;26.40;;
35126;SDS011;21300;52.006;5.798;2022-08-19T09:59:55;33.97;;;24.80;;
35126;SDS011;21300;52.006;5.798;2022-08-19T10:02:21;40.90;;;27.55;;
35126;SDS011;21300;52.006;5.798;2022-08-19T10:04:46;37.42;;;25.08;;
35126;SDS011;21300;52.006;5.798;2022-08-19T10:07:30;36.40;;;26.08;;
35126;SDS011;21300;52.006;5.798;2022-08-19T10:09:56;36.75;;;26.38;;
35126;SDS011;21300;52.006;5.798;2022-08-19T10:12:22;36.95;;;27.15;;
35126;SDS011;21300;52.006;5.798;2022-08-19T10:14:48;37.50;;;27.08;;
35126;SDS011;21300;52.006;5.798;2022-08-19T10:17:16;37.80;;;26.50;;
35126;SDS011;21300;52.006;5.798;2022-08-19T10:19:42;41.75;;;26.58;;
35126;SDS011;21300;52.006;5.798;2022-08-19T10:22:08;41.15;;;29.25;;
35126;SDS011;21300;52.006;5.798;2022-08-19T10:24:36;37.65;;;25.33;;
35126;SDS011;21300;52.006;5.798;2022-08-19T10:27:01;35.78;;;24.60;;
35126;SDS011;21300;52.006;5.798;2022-08-19T10:29:28;37.50;;;25.55;;
35126;SDS011;21300;52.006;5.798;2022-08-19T10:32:14;38.53;;;26.27;;
35126;SDS011;21300;52.006;5.798;2022-08-19T10:34:40;32.80;;;24.52;;
35126;SDS011;21300;52.006;5.798;2022-08-19T10:37:05;39.08;;;26.85;;
35126;SDS011;21300;52.006;5.798;2022-08-19T10:39:32;43.80;;;25.80;;
35126;SDS011;21300;52.006;5.798;2022-08-19T10:42:03;39.67;;;26.00;;
35126;SDS011;21300;52.006;5.798;2022-08-19T10:44:35;37.63;;;25.92;;
35126;SDS011;21300;52.006;5.798;2022-08-19T10:47:01;44.22;;;28.92;;
35126;SDS011;21300;52.006;5.798;2022-08-19T10:49:28;39.85;;;25.80;;
35126;SDS011;21300;52.006;5.798;2022-08-19T10:51:54;33.80;;;23.92;;
35126;SDS011;21300;52.006;5.798;2022-08-19T10:54:39;36.33;;;25.02;;
35126;SDS011;21300;52.006;5.798;2022-08-19T10:57:24;39.33;;;26.33;;
35126;SDS011;21300;52.006;5.798;2022-08-19T10:59:54;34.47;;;26.13;;
35126;SDS011;21300;52.006;5.798;2022-08-19T11:02:20;37.50;;;26.38;;
35126;SDS011;21300;52.006;5.798;2022-08-19T11:04:47;37.10;;;24.55;;
35126;SDS011;21300;52.006;5.798;2022-08-19T11:07:14;35.10;;;24.58;;
35126;SDS011;21300;52.006;5.798;2022-08-19T11:09:41;37.60;;;25.77;;
35126;SDS011;21300;52.006;5.798;2022-08-19T11:12:08;39.90;;;26.13;;
35126;SDS011;21300;52.006;5.798;2022-08-19T11:14:34;35.13;;;22.42;;
35126;SDS011;21300;52.006;5.798;2022-08-19T11:17:02;36.10;;;25.30;;
35126;SDS011;21300;52.006;5.798;2022-08-19T11:19:29;35.38;;;23.17;;
35126;SDS011;21300;52.006;5.798;2022-08-19T11:21:55;33.78;;;22.08;;
35126;SDS011;21300;52.006;5.798;2022-08-19T11:24:21;34.20;;;22.02;;
35126;SDS011;21300;52.006;5.798;2022-08-19T11:26:49;32.83;;;22.50;;
35126;SDS011;21300;52.006;5.798;2022-08-19T11:29:17;34.38;;;21.60;;
35126;SDS011;21300;52.006;5.798;2022-08-19T11:31:50;31.67;;;22.67;;
35126;SDS011;21300;52.006;5.798;2022-08-19T11:34:21;34.05;;;21.40;;
35126;SDS011;21300;52.006;5.798;2022-08-19T11:36:49;28.00;;;21.40;;
35126;SDS011;21300;52.006;5.798;2022-08-19T11:39:17;27.25;;;20.50;;
35126;SDS011;21300;52.006;5.798;2022-08-19T11:41:44;29.83;;;22.25;;
35126;SDS011;21300;52.006;5.798;2022-08-19T11:44:10;25.45;;;18.80;;
35126;SDS011;21300;52.006;5.798;2022-08-19T11:46:38;31.38;;;21.35;;
35126;SDS011;21300;52.006;5.798;2022-08-19T11:49:05;25.80;;;18.67;;
35126;SDS011;21300;52.006;5.798;2022-08-19T11:51:34;26.52;;;18.60;;
35126;SDS011;21300;52.006;5.798;2022-08-19T11:54:00;27.30;;;19.25;;
35126;SDS011;21300;52.006;5.798;2022-08-19T11:56:27;27.42;;;21.35;;
35126;SDS011;21300;52.006;5.798;2022-08-19T11:58:53;25.35;;;20.50;;
35126;SDS011;21300;52.006;5.798;2022-08-19T12:01:21;31.08;;;22.35;;
35126;SDS011;21300;52.006;5.798;2022-08-19T12:03:49;25.20;;;19.00;;
35126;SDS011;21300;52.006;5.798;2022-08-19T12:06:17;26.10;;;21.52;;
35126;SDS011;21300;52.006;5.798;2022-08-19T12:08:50;25.23;;;18.50;;
35126;SDS011;21300;52.006;5.798;2022-08-19T12:11:16;28.73;;;21.00;;
35126;SDS011;21300;52.006;5.798;2022-08-19T12:13:42;27.33;;;20.52;;
35126;SDS011;21300;52.006;5.798;2022-08-19T12:16:15;27.65;;;20.90;;
35126;SDS011;21300;52.006;5.798;2022-08-19T12:18:46;28.38;;;21.42;;
35126;SDS011;21300;52.006;5.798;2022-08-19T12:21:16;30.00;;;22.75;;
35126;SDS011;21300;52.006;5.798;2022-08-19T12:23:46;36.50;;;25.52;;
35126;SDS011;21300;52.006;5.798;2022-08-19T12:26:13;28.92;;;22.98;;
35126;SDS011;21300;52.006;5.798;2022-08-19T12:28:39;29.67;;;23.80;;
35126;SDS011;21300;52.006;5.798;2022-08-19T12:31:06;37.88;;;26.52;;
35126;SDS011;21300;52.006;5.798;2022-08-19T12:33:32;31.75;;;25.63;;
35126;SDS011;21300;52.006;5.798;2022-08-19T12:36:05;29.17;;;23.73;;
35126;SDS011;21300;52.006;5.798;2022-08-19T12:38:32;31.42;;;23.73;;
35126;SDS011;21300;52.006;5.798;2022-08-19T12:40:59;32.90;;;23.00;;
35126;SDS011;21300;52.006;5.798;2022-08-19T12:43:25;31.35;;;23.90;;
35126;SDS011;21300;52.006;5.798;2022-08-19T12:45:51;30.88;;;24.77;;
35126;SDS011;21300;52.006;5.798;2022-08-19T12:48:17;28.27;;;21.55;;
35126;SDS011;21300;52.006;5.798;2022-08-19T12:50:43;29.55;;;24.27;;
35126;SDS011;21300;52.006;5.798;2022-08-19T12:53:13;30.90;;;23.98;;
35126;SDS011;21300;52.006;5.798;2022-08-19T12:55:39;32.63;;;25.73;;
35126;SDS011;21300;52.006;5.798;2022-08-19T12:58:05;39.13;;;26.58;;
35126;SDS011;21300;52.006;5.798;2022-08-19T13:00:31;35.08;;;27.63;;
35126;SDS011;21300;52.006;5.798;2022-08-19T13:02:58;31.23;;;24.13;;
35126;SDS011;21300;52.006;5.798;2022-08-19T13:05:26;34.30;;;26.00;;
35126;SDS011;21300;52.006;5.798;2022-08-19T13:07:54;30.42;;;23.92;;
35126;SDS011;21300;52.006;5.798;2022-08-19T13:10:23;31.02;;;21.85;;
35126;SDS011;21300;52.006;5.798;2022-08-19T13:12:53;38.53;;;25.83;;
35126;SDS011;21300;52.006;5.798;2022-08-19T13:15:20;25.70;;;21.42;;
35126;SDS011;21300;52.006;5.798;2022-08-19T13:17:48;26.08;;;21.63;;
35126;SDS011;21300;52.006;5.798;2022-08-19T13:20:16;27.27;;;21.00;;
35126;SDS011;21300;52.006;5.798;2022-08-19T13:22:43;27.45;;;20.92;;
35126;SDS011;21300;52.006;5.798;2022-08-19T13:25:10;24.15;;;19.15;;
35126;SDS011;21300;52.006;5.798;2022-08-19T13:27:37;27.27;;;20.52;;
35126;SDS011;21300;52.006;5.798;2022-08-19T13:30:04;21.77;;;18.48;;
35126;SDS011;21300;52.006;5.798;2022-08-19T13:32:51;29.92;;;23.30;;
35126;SDS011;21300;52.006;5.798;2022-08-19T13:35:35;24.13;;;19.33;;
35126;SDS011;21300;52.006;5.798;2022-08-19T13:38:12;26.48;;;21.60;;
35126;SDS011;21300;52.006;5.798;2022-08-19T13:40:40;28.20;;;21.48;;
35126;SDS011;21300;52.006;5.798;2022-08-19T13:43:06;26.52;;;20.25;;
35126;SDS011;21300;52.006;5.798;2022-08-19T13:45:33;25.73;;;20.98;;
35126;SDS011;21300;52.006;5.798;2022-08-19T13:47:59;22.70;;;18.80;;
35126;SDS011;21300;52.006;5.798;2022-08-19T13:50:27;26.08;;;19.70;;
35126;SDS011;21300;52.006;5.798;2022-08-19T13:52:56;28.63;;;22.63;;
35126;SDS011;21300;52.006;5.798;2022-08-19T13:55:23;28.65;;;21.75;;
35126;SDS011;21300;52.006;5.798;2022-08-19T13:57:53;27.88;;;20.98;;
35126;SDS011;21300;52.006;5.798;2022-08-19T14:00:20;29.40;;;24.77;;
35126;SDS011;21300;52.006;5.798;2022-08-19T14:02:50;32.42;;;24.48;;
35126;SDS011;21300;52.006;5.798;2022-08-19T14:05:18;33.88;;;25.30;;
35126;SDS011;21300;52.006;5.798;2022-08-19T14:07:45;32.15;;;25.95;;
35126;SDS011;21300;52.006;5.798;2022-08-19T14:10:12;32.35;;;26.05;;
35126;SDS011;21300;52.006;5.798;2022-08-19T14:12:38;31.85;;;24.05;;
35126;SDS011;21300;52.006;5.798;2022-08-19T14:15:06;31.73;;;24.08;;
35126;SDS011;21300;52.006;5.798;2022-08-19T14:17:33;32.92;;;24.65;;
35126;SDS011;21300;52.006;5.798;2022-08-19T14:20:02;30.98;;;25.33;;
35126;SDS011;21300;52.006;5.798;2022-08-19T14:22:33;32.50;;;24.52;;
35126;SDS011;21300;52.006;5.798;2022-08-19T14:25:03;34.88;;;24.48;;
35126;SDS011;21300;52.006;5.798;2022-08-19T14:27:30;31.00;;;23.95;;
35126;SDS011;21300;52.006;5.798;2022-08-19T14:29:58;29.65;;;22.67;;
35126;SDS011;21300;52.006;5.798;2022-08-19T14:32:24;29.15;;;22.98;;
35126;SDS011;21300;52.006;5.798;2022-08-19T14:34:52;23.45;;;19.02;;
35126;SDS011;21300;52.006;5.798;2022-08-19T14:37:18;21.13;;;15.40;;
35126;SDS011;21300;52.006;5.798;2022-08-19T14:39:44;22.45;;;13.88;;
35126;SDS011;21300;52.006;5.798;2022-08-19T14:42:10;16.40;;;11.98;;
35126;SDS011;21300;52.006;5.798;2022-08-19T14:44:36;15.02;;;10.85;;
35126;SDS011;21300;52.006;5.798;2022-08-19T14:47:02;14.35;;;11.00;;
35126;SDS011;21300;52.006;5.798;2022-08-19T14:49:28;12.98;;;9.50;;
35126;SDS011;21300;52.006;5.798;2022-08-19T14:51:54;12.35;;;8.02;;
35126;SDS011;21300;52.006;5.798;2022-08-19T14:54:21;8.68;;;7.18;;
35126;SDS011;21300;52.006;5.798;2022-08-19T14:56:47;10.32;;;6.70;;
35126;SDS011;21300;52.006;5.798;2022-08-19T14:59:13;9.88;;;6.45;;
35126;SDS011;21300;52.006;5.798;2022-08-19T15:01:39;9.35;;;5.68;;